North Uxbridge, Massachusetts
Current Conditions -  °F | °C
As of 8:55 AM on Wednesday 22 Oct 2014 (Local Time) from KSFZ Reporting Station
Overcast Overcast  
Wind Chill: 52°   Ceiling: 300
Heat Index: 52°   Visibility: 3mi
Dew Point: 45°   Wind: 13mph
Humidity: 76%   Direction: 30°NNE
Pressure: 29.98"   Gusts: NA
Location:  42.09°N, 71.64°W
Report Text: KSFZ 221255Z 03011KT 3SM OVC003 11/07 A2998 RMK AO1 P0001
Loading
Personal Weather Stations






























Interactive Weather Map
Tropical Storm Tracking
New forecast layout! Learn more

10-Day Weather Forecast

Advertisements
Track Severe Weather on mobile